Terminal Aerodrome Forecast
Issued by NWS

Home | Current Version | Previous Version | Text Only | Print | Product List | Glossary On
Versions: 1 2 3 4 5 6 7 8 9 10 11 12 13 14 15
000
FTAK31 PAJN 190500
TAFAYA
TAF
PAYA 190539Z 1906/2006 08003KT P6SM FEW030 FEW120
     FM190900 08003KT 6SM BR FEW005 FEW120
     FM191700 07004KT P6SM SCT120
      AMD LTD TO CLD VIS AND WIND 1906/1910=

USA.gov is the U.S. government's official web portal to all federal, state and local government web resources and services.